Time;durP1;ratioP1;P1;durP2;ratioP2;P2;SDS_P1;SDS_P2;PMS_P1;PMS_P2;Temp;Humidity;BMP_temperature;BMP_pressure;BME280_temperature;BME280_humidity;BME280_pressure;Samples;Min_cycle;Max_cycle;Signal;HPM_P1;HPM_P2
2020/12/27 00:00:16;;;;;;;1.07;1.07;;;;;;;-0.91;99.10;100581.14;1820946;78;20964;-72
2020/12/27 00:02:44;;;;;;;1.80;1.47;;;;;;;-0.91;99.04;100574.98;1820927;78;21070;-72
2020/12/27 00:05:13;;;;;;;2.87;1.30;;;;;;;-0.91;98.97;100577.16;1781901;80;20974;-72
2020/12/27 00:07:44;;;;;;;1.37;1.27;;;;;;;-0.92;98.88;100574.14;1816280;78;21392;-72
2020/12/27 00:10:12;;;;;;;1.93;1.77;;;;;;;-0.93;98.80;100564.45;1781891;80;20997;-72
2020/12/27 00:12:39;;;;;;;1.40;1.20;;;;;;;-0.94;98.77;100573.34;1821009;78;21588;-72
2020/12/27 00:15:07;;;;;;;1.47;1.37;;;;;;;-0.94;98.70;100575.16;1820774;78;20998;-72
2020/12/27 00:17:35;;;;;;;1.00;1.00;;;;;;;-0.95;98.64;100563.68;1782034;80;21630;-72
2020/12/27 00:20:06;;;;;;;1.73;1.40;;;;;;;-0.98;98.53;100557.20;1820894;78;21724;-72
2020/12/27 00:22:33;;;;;;;1.50;1.10;;;;;;;-1.00;98.46;100567.91;1781936;80;20954;-72
2020/12/27 00:25:03;;;;;;;0.80;0.80;;;;;;;-1.02;98.38;100565.81;1820844;78;20990;-72
2020/12/27 00:27:31;;;;;;;1.40;1.30;;;;;;;-1.04;98.31;100569.50;1782090;80;21602;-73
2020/12/27 00:29:58;;;;;;;3.97;1.30;;;;;;;-1.04;98.29;100569.02;1820844;78;21038;-72
2020/12/27 00:32:30;;;;;;;1.50;1.40;;;;;;;-1.06;98.24;100554.98;1782058;80;21389;-72
2020/12/27 00:34:59;;;;;;;0.93;0.93;;;;;;;-1.07;98.15;100561.70;1820892;78;21490;-71
2020/12/27 00:37:32;;;;;;;1.20;1.10;;;;;;;-1.11;98.07;100564.14;1820783;78;20935;-71
2020/12/27 00:40:00;;;;;;;1.12;1.10;;;;;;;-1.14;97.96;100566.48;1821052;78;21641;-72
2020/12/27 00:42:28;;;;;;;1.07;0.97;;;;;;;-1.18;97.92;100569.77;1821008;78;20923;-72
2020/12/27 00:44:57;;;;;;;2.10;1.17;;;;;;;-1.22;97.85;100570.89;1764810;78;21015;-72
2020/12/27 00:47:25;;;;;;;1.30;1.10;;;;;;;-1.25;97.77;100576.83;1819290;78;20974;-71
2020/12/27 00:49:53;;;;;;;1.83;1.47;;;;;;;-1.28;97.76;100577.83;1819687;76;21019;-72
2020/12/27 00:52:21;;;;;;;1.63;1.53;;;;;;;-1.31;97.76;100582.00;1821030;78;21540;-72
2020/12/27 00:54:49;;;;;;;2.00;1.30;;;;;;;-1.30;97.78;100580.20;1820896;78;20884;-72
2020/12/27 00:57:17;;;;;;;2.50;1.83;;;;;;;-1.31;97.83;100582.00;1781974;80;21020;-71
2020/12/27 00:59:45;;;;;;;1.33;1.20;;;;;;;-1.32;97.88;100589.56;1820831;78;20971;-72
2020/12/27 01:02:14;;;;;;;5.33;2.30;;;;;;;-1.31;97.91;100579.34;1820877;78;21050;-72
2020/12/27 01:04:48;;;;;;;1.63;1.50;;;;;;;-1.31;97.96;100583.33;1820943;78;21556;-71
2020/12/27 01:07:19;;;;;;;4.13;2.23;;;;;;;-1.30;98.01;100582.37;1820540;78;21002;-71
2020/12/27 01:09:48;;;;;;;2.73;2.17;;;;;;;-1.29;98.05;100583.22;1820639;78;21275;-71
2020/12/27 01:12:16;;;;;;;2.13;1.63;;;;;;;-1.30;98.06;100578.87;1789085;78;21050;-71
2020/12/27 01:14:45;;;;;;;0.80;0.80;;;;;;;-1.31;98.06;100579.34;1820859;78;20994;-72
2020/12/27 01:17:15;;;;;;;2.57;1.93;;;;;;;-1.34;98.08;100576.37;1816086;78;20999;-72
2020/12/27 01:19:43;;;;;;;1.47;1.37;;;;;;;-1.36;98.04;100578.73;1820856;78;21524;-72
2020/12/27 01:22:11;;;;;;;1.60;1.10;;;;;;;-1.39;98.04;100579.73;1820977;78;21365;-71
2020/12/27 01:24:57;;;;;;;1.00;0.83;;;;;;;-1.43;97.99;100579.52;1820812;78;20978;-72
2020/12/27 01:27:25;;;;;;;1.23;1.00;;;;;;;-1.47;97.96;100585.94;1820880;78;21449;-72
2020/12/27 01:29:53;;;;;;;0.77;0.77;;;;;;;-1.49;97.94;100584.28;1820841;78;20987;-71
2020/12/27 01:32:23;;;;;;;1.60;1.50;;;;;;;-1.54;97.90;100580.53;1816190;78;21014;-72
2020/12/27 01:34:51;;;;;;;1.87;1.77;;;;;;;-1.58;97.90;100583.81;1820932;78;21205;-72
2020/12/27 01:37:20;;;;;;;0.80;0.80;;;;;;;-1.60;97.91;100590.16;1851329;76;20926;-72
2020/12/27 01:39:50;;;;;;;1.17;1.17;;;;;;;-1.63;97.90;100603.56;1854402;77;20933;-72
2020/12/27 01:42:18;;;;;;;1.93;1.20;;;;;;;-1.66;97.92;100607.24;1854393;77;20969;-71
2020/12/27 01:44:46;;;;;;;0.97;0.83;;;;;;;-1.67;97.95;100600.69;1854359;77;20945;-71
2020/12/27 01:47:17;;;;;;;1.70;1.00;;;;;;;-1.70;97.97;100608.31;1830622;77;21967;-72
2020/12/27 01:49:45;;;;;;;0.83;0.83;;;;;;;-1.72;98.00;100607.09;1827239;78;21554;-72
2020/12/27 01:52:14;;;;;;;0.80;0.80;;;;;;;-1.72;98.02;100607.54;1827307;78;21028;-71
2020/12/27 01:55:03;;;;;;;1.50;0.70;;;;;;;-1.73;98.06;100613.80;1748115;81;21060;-71
2020/12/27 01:57:55;;;;;;;1.23;1.23;;;;;;;-1.68;98.19;100621.05;1890075;76;26777;-71
2020/12/27 02:00:23;;;;;;;1.33;1.23;;;;;;;-1.70;98.28;100624.70;1830072;76;20993;-72
2020/12/27 02:03:02;;;;;;;0.40;0.40;;;;;;;-1.69;98.39;100630.41;1771372;80;21803;-71
2020/12/27 02:05:42;;;;;;;0.60;0.60;;;;;;;-1.63;98.51;100627.43;1845371;76;26298;-71
2020/12/27 02:08:11;;;;;;;0.87;0.87;;;;;;;-1.65;98.59;100627.98;1815340;79;20936;-72
2020/12/27 02:10:44;;;;;;;1.20;1.00;;;;;;;-1.63;98.69;100631.41;1810618;79;21192;-73
2020/12/27 02:13:11;;;;;;;0.87;0.87;;;;;;;-1.62;98.78;100641.94;1815204;79;21463;-72
2020/12/27 02:15:40;;;;;;;1.00;0.77;;;;;;;-1.60;98.83;100654.65;1815265;79;21506;-72
2020/12/27 02:18:26;;;;;;;0.90;0.90;;;;;;;-1.59;98.89;100656.86;1815206;79;20996;-70
2020/12/27 02:20:54;;;;;;;1.97;1.13;;;;;;;-1.58;98.95;100667.36;1815260;79;20976;-72
2020/12/27 02:23:24;;;;;;;2.77;2.30;;;;;;;-1.57;98.97;100661.61;1815136;78;21831;-72
2020/12/27 02:25:54;;;;;;;2.87;2.00;;;;;;;-1.58;99.01;100664.70;1810557;78;20976;-73
2020/12/27 02:28:26;;;;;;;2.02;1.77;;;;;;;-1.56;99.10;100674.80;1746444;81;21013;-71
2020/12/27 02:31:04;;;;;;;1.67;1.50;;;;;;;-1.48;99.25;100681.02;1845330;76;26890;-71
2020/12/27 02:33:33;;;;;;;3.60;2.33;;;;;;;-1.51;99.30;100688.28;1810658;79;20937;-71
2020/12/27 02:36:03;;;;;;;1.23;1.23;;;;;;;-1.51;99.35;100685.16;1810778;79;21401;-71
2020/12/27 02:38:31;;;;;;;2.77;1.27;;;;;;;-1.51;99.37;100682.98;1815270;78;21520;-71
2020/12/27 02:40:59;;;;;;;3.30;2.47;;;;;;;-1.53;99.38;100675.94;1815296;79;21518;-71
2020/12/27 02:43:28;;;;;;;3.00;2.70;;;;;;;-1.53;99.37;100678.59;1810666;79;20968;-73
2020/12/27 02:45:56;;;;;;;3.00;2.17;;;;;;;-1.53;99.40;100681.25;1829073;77;20969;-72
2020/12/27 02:48:31;;;;;;;2.03;1.93;;;;;;;-1.53;99.44;100688.36;1861062;77;21635;-72
2020/12/27 02:51:00;;;;;;;1.87;1.77;;;;;;;-1.52;99.50;100676.83;1860879;76;21567;-72
2020/12/27 02:53:31;;;;;;;3.10;2.80;;;;;;;-1.51;99.51;100684.30;1861034;77;20902;-71
2020/12/27 02:55:59;;;;;;;7.20;4.23;;;;;;;-1.49;99.60;100695.69;1860945;77;20949;-72
2020/12/27 02:58:27;;;;;;;8.37;6.73;;;;;;;-1.47;99.63;100696.47;1861002;77;20950;-72
2020/12/27 03:00:56;;;;;;;4.70;4.20;;;;;;;-1.45;99.72;100697.23;1830901;77;21588;-73
2020/12/27 03:03:25;;;;;;;6.67;5.40;;;;;;;-1.43;99.81;100704.67;1735745;82;21068;-72
2020/12/27 03:06:14;;;;;;;3.63;3.03;;;;;;;-1.37;99.87;100706.52;1890118;76;26716;-71
2020/12/27 03:08:42;;;;;;;7.33;6.17;;;;;;;-1.40;99.91;100720.41;1861137;77;20978;-72
2020/12/27 03:11:15;;;;;;;4.60;4.20;;;;;;;-1.39;99.92;100724.80;1780509;80;21359;-72
2020/12/27 03:13:43;;;;;;;4.47;3.40;;;;;;;-1.39;99.93;100726.98;1780100;80;21003;-71
2020/12/27 03:16:11;;;;;;;3.73;3.33;;;;;;;-1.38;99.95;100730.03;1780321;80;20947;-72
2020/12/27 03:18:49;;;;;;;3.07;2.77;;;;;;;-1.33;99.95;100728.45;1890022;76;27242;-72
2020/12/27 03:21:22;;;;;;;3.80;3.13;;;;;;;-1.37;99.91;100726.91;1751253;81;20997;-72
2020/12/27 03:23:53;;;;;;;6.07;4.93;;;;;;;-1.36;99.90;100724.66;1723950;83;22286;-71
2020/12/27 03:26:30;;;;;;;3.57;3.23;;;;;;;-1.29;99.93;100734.45;1845312;76;27146;-72
2020/12/27 03:29:01;;;;;;;2.80;2.60;;;;;;;-1.33;99.92;100737.73;1815434;79;20980;-71
2020/12/27 03:31:30;;;;;;;3.03;2.73;;;;;;;-1.32;99.90;100740.80;1815405;79;21481;-71
2020/12/27 03:33:59;;;;;;;2.17;2.07;;;;;;;-1.34;99.86;100742.20;1810768;79;21358;-72
2020/12/27 03:36:30;;;;;;;2.00;1.90;;;;;;;-1.34;99.85;100740.02;1810740;79;21333;-72
2020/12/27 03:38:59;;;;;;;1.93;1.83;;;;;;;-1.33;99.83;100748.35;1810645;79;21016;-72
2020/12/27 03:41:28;;;;;;;1.77;1.67;;;;;;;-1.34;99.82;100753.28;1739480;82;21567;-71
2020/12/27 03:44:06;;;;;;;2.53;2.13;;;;;;;-1.29;99.82;100756.56;1890095;76;25863;-72
2020/12/27 03:46:36;;;;;;;1.47;1.30;;;;;;;-1.35;99.78;100760.39;1855966;77;21484;-71
2020/12/27 03:49:05;;;;;;;2.43;1.40;;;;;;;-1.35;99.77;100764.38;1782085;80;21738;-70
2020/12/27 03:51:46;;;;;;;2.77;1.90;;;;;;;-1.32;99.75;100766.00;1845373;76;25832;-72
2020/12/27 03:54:15;;;;;;;4.93;2.10;;;;;;;-1.38;99.71;100777.79;1811001;79;20952;-72
2020/12/27 03:56:48;;;;;;;3.75;3.30;;;;;;;-1.39;99.72;100773.88;1739549;82;21825;-72
2020/12/27 03:59:28;;;;;;;2.10;1.67;;;;;;;-1.36;99.78;100771.08;1845149;76;24790;-72
2020/12/27 04:01:58;;;;;;;5.80;3.50;;;;;;;-1.40;99.81;100769.50;1788890;78;20936;-73
2020/12/27 04:04:29;;;;;;;8.10;4.77;;;;;;;-1.41;99.86;100769.97;1783254;80;21864;-71
2020/12/27 04:06:59;;;;;;;22.93;12.40;;;;;;;-1.38;99.98;100785.75;1778552;80;20956;-72
2020/12/27 04:09:29;;;;;;;11.97;6.87;;;;;;;-1.36;100.00;100787.85;1778600;80;20996;-72
2020/12/27 04:11:57;;;;;;;7.47;4.37;;;;;;;-1.34;100.00;100792.61;1783160;80;21004;-72
2020/12/27 04:14:25;;;;;;;5.77;4.10;;;;;;;-1.31;100.00;100798.25;1735778;82;20997;-72
2020/12/27 04:16:52;;;;;;;3.43;2.70;;;;;;;-1.29;100.00;100796.81;1741162;82;21934;-71
2020/12/27 04:19:20;;;;;;;2.80;2.60;;;;;;;-1.27;100.00;100793.17;1740978;82;21040;-72
2020/12/27 04:21:56;;;;;;;3.93;2.97;;;;;;;-1.25;100.00;100800.58;1736745;81;20988;-71
2020/12/27 04:24:36;;;;;;;3.23;2.73;;;;;;;-1.20;100.00;100804.34;1889896;76;26426;-71
2020/12/27 04:27:07;;;;;;;4.83;2.90;;;;;;;-1.25;100.00;100809.02;1860905;77;20997;-72
2020/12/27 04:29:34;;;;;;;4.33;3.17;;;;;;;-1.23;100.00;100824.39;1860886;77;22456;-71
2020/12/27 04:32:03;;;;;;;6.03;3.90;;;;;;;-1.21;100.00;100826.02;1860861;77;20970;-71
2020/12/27 04:34:48;;;;;;;6.50;3.97;;;;;;;-1.20;100.00;100826.42;1856029;77;21532;-72
2020/12/27 04:37:17;;;;;;;3.00;1.90;;;;;;;-1.21;100.00;100830.00;1856013;77;21567;-72
2020/12/27 04:39:47;;;;;;;2.40;2.20;;;;;;;-1.23;100.00;100835.00;1856042;77;21432;-71
2020/12/27 04:42:16;;;;;;;1.67;1.57;;;;;;;-1.25;100.00;100835.08;1860946;77;21347;-72
2020/12/27 04:44:45;;;;;;;3.43;2.87;;;;;;;-1.24;100.00;100838.14;1855960;77;20935;-71
2020/12/27 04:47:16;;;;;;;4.03;2.40;;;;;;;-1.25;100.00;100834.23;1829095;77;20930;-71
2020/12/27 04:49:46;;;;;;;10.67;6.10;;;;;;;-1.24;100.00;100842.56;1824012;77;20998;-73
2020/12/27 04:52:14;;;;;;;6.40;4.07;;;;;;;-1.26;100.00;100837.80;1860808;77;20911;-71
2020/12/27 04:54:44;;;;;;;4.67;3.63;;;;;;;-1.28;100.00;100837.88;1824679;77;21891;-72
2020/12/27 04:57:30;;;;;;;3.47;2.90;;;;;;;-1.28;100.00;100831.23;1851943;76;26154;-72
2020/12/27 04:59:58;;;;;;;3.83;2.23;;;;;;;-1.37;100.00;100837.00;1777785;80;20940;-72
2020/12/27 05:02:27;;;;;;;3.90;1.83;;;;;;;-1.42;100.00;100845.66;1816912;78;21391;-72
2020/12/27 05:04:56;;;;;;;3.27;2.07;;;;;;;-1.48;100.00;100844.64;1821639;78;21012;-71
2020/12/27 05:07:28;;;;;;;2.83;2.40;;;;;;;-1.53;100.00;100848.83;1816550;78;21008;-71
2020/12/27 05:10:15;;;;;;;3.77;3.40;;;;;;;-1.59;100.00;100851.79;1821589;78;20985;-71
2020/12/27 05:12:45;;;;;;;3.30;3.00;;;;;;;-1.67;100.00;100860.56;1817201;78;21008;-72
2020/12/27 05:15:14;;;;;;;2.87;1.80;;;;;;;-1.73;100.00;100873.18;1821589;78;21198;-73
2020/12/27 05:17:42;;;;;;;1.77;1.47;;;;;;;-1.78;100.00;100865.91;1821734;78;20972;-73
2020/12/27 05:20:12;;;;;;;2.10;1.90;;;;;;;-1.84;100.00;100870.63;1821644;78;21004;-72
2020/12/27 05:22:42;;;;;;;1.87;1.77;;;;;;;-1.93;100.00;100876.77;1821649;78;20973;-71
2020/12/27 05:25:14;;;;;;;1.35;1.25;;;;;;;-1.99;99.92;100876.18;1676102;84;21691;-72
2020/12/27 05:28:09;;;;;;;2.37;1.63;;;;;;;-2.04;99.84;100882.16;1851938;76;27187;-71
2020/12/27 05:30:49;;;;;;;1.47;1.37;;;;;;;-2.11;99.78;100887.75;1845411;76;26910;-72
2020/12/27 05:33:38;;;;;;;1.90;1.23;;;;;;;-2.20;99.68;100898.73;1815393;79;20980;-72
2020/12/27 05:36:24;;;;;;;1.57;1.33;;;;;;;-2.27;99.61;100903.06;1815370;79;21752;-72
2020/12/27 05:38:55;;;;;;;3.03;2.27;;;;;;;-2.34;99.57;100906.00;1815331;79;21015;-72
2020/12/27 05:41:28;;;;;;;2.73;2.53;;;;;;;-2.38;99.56;100903.06;1739393;82;20962;-72
2020/12/27 05:44:06;;;;;;;1.47;1.37;;;;;;;-2.37;99.65;100907.92;1823859;78;25843;-71
2020/12/27 05:46:34;;;;;;;1.73;1.63;;;;;;;-2.43;99.70;100914.32;1782821;80;20945;-72
2020/12/27 05:49:02;;;;;;;1.33;1.20;;;;;;;-2.45;99.72;100925.92;1780723;80;21793;-72
2020/12/27 05:51:30;;;;;;;1.43;1.33;;;;;;;-2.50;99.73;100932.29;1780738;80;20977;-70
2020/12/27 05:54:00;;;;;;;3.67;2.63;;;;;;;-2.54;99.73;100936.45;1701563;80;20977;-71
2020/12/27 05:56:31;;;;;;;2.70;1.87;;;;;;;-2.56;99.76;100947.57;1723746;80;21005;-72
2020/12/27 05:59:00;;;;;;;0.63;0.63;;;;;;;-2.58;99.78;100952.08;1780488;80;20969;-71
2020/12/27 06:01:29;;;;;;;2.00;1.50;;;;;;;-2.60;99.83;100955.22;1706847;80;21224;-72
2020/12/27 06:04:02;;;;;;;5.17;2.93;;;;;;;-2.64;99.84;100958.94;1737794;80;21021;-72
2020/12/27 06:06:51;;;;;;;2.83;2.43;;;;;;;-2.62;99.90;100951.78;1851937;76;24081;-71
2020/12/27 06:09:42;;;;;;;2.20;1.93;;;;;;;-2.65;100.00;100953.27;1855178;77;21446;-71
2020/12/27 06:12:14;;;;;;;1.83;1.63;;;;;;;-2.64;100.00;100959.79;1854510;77;21197;-71
2020/12/27 06:14:49;;;;;;;1.60;1.50;;;;;;;-2.66;100.00;100972.23;1819868;77;21452;-73
2020/12/27 06:17:18;;;;;;;1.87;1.50;;;;;;;-2.68;100.00;100970.97;1725248;82;21551;-72
2020/12/27 06:20:08;;;;;;;4.33;2.57;;;;;;;-2.63;100.00;100969.94;1890051;76;25955;-71
2020/12/27 06:22:40;;;;;;;6.03;3.07;;;;;;;-2.67;100.00;100974.03;1860825;77;21026;-72
2020/12/27 06:25:12;;;;;;;3.37;2.62;;;;;;;-2.61;100.00;100982.65;1825775;77;21421;-71
2020/12/27 06:27:40;;;;;;;4.13;2.50;;;;;;;-2.54;100.00;100982.31;1802160;77;21299;-71
2020/12/27 06:30:21;;;;;;;4.90;2.90;;;;;;;-2.45;100.00;100986.37;1861023;77;21006;-72
2020/12/27 06:33:00;;;;;;;5.90;3.87;;;;;;;-2.37;100.00;100988.24;1855939;77;20990;-73
2020/12/27 06:35:30;;;;;;;3.60;2.97;;;;;;;-2.29;100.00;100984.78;1829835;77;21516;-71
2020/12/27 06:37:57;;;;;;;2.83;2.53;;;;;;;-2.20;100.00;101002.08;1860902;77;21362;-72
2020/12/27 06:40:27;;;;;;;4.57;2.97;;;;;;;-2.13;100.00;101001.35;1855947;77;20923;-72
2020/12/27 06:43:22;;;;;;;5.10;3.77;;;;;;;-2.05;100.00;101003.66;1855937;77;21018;-72
2020/12/27 06:45:52;;;;;;;9.13;5.53;;;;;;;-1.99;100.00;101009.56;1847700;77;21064;-71
2020/12/27 06:48:35;;;;;;;6.67;4.30;;;;;;;-1.85;100.00;101008.11;1852041;76;27236;-71
2020/12/27 06:51:45;;;;;;;5.80;3.17;;;;;;;-1.77;100.00;101008.61;1845350;76;27155;-71
2020/12/27 06:54:15;;;;;;;5.10;3.33;;;;;;;-1.72;100.00;101014.57;1783553;80;21046;-71
2020/12/27 06:56:54;;;;;;;5.43;3.10;;;;;;;-1.56;100.00;101003.69;1890103;76;26754;-71
2020/12/27 06:59:33;;;;;;;6.50;4.50;;;;;;;-1.48;100.00;101011.28;1747021;81;21046;-71
2020/12/27 07:02:11;;;;;;;7.03;5.30;;;;;;;-1.31;100.00;101010.52;1843362;76;24888;-71
2020/12/27 07:04:42;;;;;;;10.30;5.13;;;;;;;-1.26;100.00;101024.88;1813753;79;21594;-72
2020/12/27 07:07:09;;;;;;;36.93;14.03;;;;;;;-1.15;100.00;101031.42;1747087;82;21281;-72
2020/12/27 07:09:41;;;;;;;23.83;12.07;;;;;;;-1.04;100.00;101030.92;1778043;79;21646;-71
2020/12/27 07:12:11;;;;;;;27.90;14.87;;;;;;;-0.97;100.00;101023.05;1747153;82;21014;-71
2020/12/27 07:14:43;;;;;;;8.60;5.90;;;;;;;-0.89;100.00;101024.48;1747027;82;21037;-71
2020/12/27 07:17:21;;;;;;;11.17;6.70;;;;;;;-0.78;100.00;101027.47;1845385;76;25722;-72
2020/12/27 07:19:49;;;;;;;8.73;5.77;;;;;;;-0.75;100.00;101026.48;1784380;79;20981;-71
2020/12/27 07:22:16;;;;;;;7.17;4.13;;;;;;;-0.68;100.00;101027.42;1769097;79;20992;-72
2020/12/27 07:24:47;;;;;;;7.37;4.67;;;;;;;-0.63;100.00;101033.37;1728769;80;20976;-72
2020/12/27 07:27:14;;;;;;;6.17;4.07;;;;;;;-0.54;100.00;101036.05;1715648;80;21042;-72
2020/12/27 07:29:42;;;;;;;21.57;10.13;;;;;;;-0.49;100.00;101043.81;1728666;80;21545;-71
2020/12/27 07:32:10;;;;;;;23.53;11.43;;;;;;;-0.45;100.00;101040.91;1753205;80;20984;-71
2020/12/27 07:34:38;;;;;;;12.27;6.30;;;;;;;-0.37;100.00;101047.19;1783208;79;21194;-71
2020/12/27 07:37:06;;;;;;;9.80;5.60;;;;;;;-0.29;100.00;101040.15;1783197;80;21451;-71
2020/12/27 07:39:53;;;;;;;7.17;4.57;;;;;;;-0.22;100.00;101053.52;1798549;79;20976;-70
2020/12/27 07:42:28;;;;;;;7.30;3.93;;;;;;;-0.12;100.00;101061.43;1815451;79;20965;-71
2020/12/27 07:44:59;;;;;;;4.33;3.93;;;;;;;-0.03;100.00;101056.12;1801144;78;21047;-71
2020/12/27 07:47:27;;;;;;;11.43;5.90;;;;;;;0.08;100.00;101056.41;1801731;79;21360;-74
2020/12/27 07:50:13;;;;;;;14.90;8.13;;;;;;;0.17;100.00;101060.41;1781619;79;21214;-71
2020/12/27 07:52:56;;;;;;;9.10;6.17;;;;;;;0.23;100.00;101070.74;1769767;81;20916;-71
2020/12/27 07:55:31;;;;;;;;;;;;;;;0.39;100.00;101074.80;1772420;81;21063;-72
2020/12/27 07:58:03;;;;;;;6.33;4.10;;;;;;;0.56;100.00;101073.89;1769807;81;20165;-72
2020/12/27 08:00:39;;;;;;;6.45;4.03;;;;;;;0.65;100.00;101068.55;1801436;78;21389;-72
2020/12/27 08:03:07;;;;;;;6.27;3.80;;;;;;;0.67;99.81;101074.16;1800649;79;20983;-72
2020/12/27 08:05:38;;;;;;;6.70;3.90;;;;;;;0.76;99.37;101082.13;1801483;79;21020;-73
2020/12/27 08:08:08;;;;;;;13.13;6.43;;;;;;;0.91;99.19;101087.11;1801698;79;20964;-71
2020/12/27 08:10:36;;;;;;;14.73;6.20;;;;;;;1.10;99.03;101086.98;1801657;79;21628;-71
2020/12/27 08:13:06;;;;;;;20.53;11.67;;;;;;;1.14;98.46;101092.03;1801657;79;22253;-71
2020/12/27 08:15:41;;;;;;;19.37;10.10;;;;;;;1.24;98.05;101094.18;1793526;79;21113;-72
2020/12/27 08:18:10;;;;;;;18.60;8.97;;;;;;;1.33;97.62;101089.70;1737804;81;21233;-71
2020/12/27 08:20:49;;;;;;;19.40;8.90;;;;;;;1.54;97.44;101084.08;1725153;81;21644;-72
2020/12/27 08:23:19;;;;;;;26.97;12.20;;;;;;;1.68;97.02;101098.80;1730920;82;21062;-71
2020/12/27 08:25:56;;;;;;;23.40;10.27;;;;;;;1.80;96.57;101102.11;1735993;81;21824;-70
2020/12/27 08:28:24;;;;;;;15.33;7.53;;;;;;;1.86;95.99;101094.22;1739784;81;21054;-73
2020/12/27 08:30:51;;;;;;;27.57;12.57;;;;;;;1.98;95.63;101099.31;1735123;82;21026;-71
2020/12/27 08:33:19;;;;;;;23.97;11.47;;;;;;;2.12;95.32;101099.36;1735288;81;21065;-71
2020/12/27 08:35:50;;;;;;;9.87;4.77;;;;;;;2.27;95.05;101097.61;1711604;81;21114;-71
2020/12/27 08:38:42;;;;;;;11.87;5.50;;;;;;;2.46;94.69;101092.00;1738843;81;21278;-70
2020/12/27 08:41:30;;;;;;;57.70;26.93;;;;;;;2.41;93.50;101092.78;1734821;81;20971;-70
2020/12/27 08:44:21;;;;;;;65.30;36.57;;;;;;;2.36;92.44;101089.05;1735072;82;21585;-70
2020/12/27 08:46:50;;;;;;;33.23;14.30;;;;;;;2.46;92.15;101088.88;1753407;81;20965;-70
2020/12/27 08:49:27;;;;;;;22.53;11.47;;;;;;;2.66;92.08;101090.31;1764414;81;21049;-70
2020/12/27 08:52:15;;;;;;;35.17;18.53;;;;;;;2.76;91.39;101087.07;1758468;80;22210;-70
2020/12/27 08:54:43;;;;;;;28.60;14.33;;;;;;;2.87;91.00;101093.96;1754645;81;21618;-70
2020/12/27 08:57:11;;;;;;;13.77;7.03;;;;;;;2.93;90.25;101088.22;1735822;81;21529;-70
2020/12/27 08:59:39;;;;;;;21.87;10.23;;;;;;;2.97;89.63;101091.55;1707907;81;21027;-71
2020/12/27 09:02:10;;;;;;;10.43;5.53;;;;;;;3.00;89.18;101087.36;1764460;80;21033;-70
2020/12/27 09:04:38;;;;;;;13.33;5.23;;;;;;;3.16;89.16;101071.22;1795411;80;21492;-70
2020/12/27 09:07:06;;;;;;;20.67;9.57;;;;;;;3.29;88.80;101073.46;1795299;80;21006;-70
2020/12/27 09:09:35;;;;;;;15.53;7.73;;;;;;;3.41;88.21;101065.98;1795272;80;21161;-71
2020/12/27 09:12:10;;;;;;;23.50;10.67;;;;;;;3.51;87.75;101070.76;1795135;80;21034;-70
2020/12/27 09:14:38;;;;;;;16.40;6.90;;;;;;;3.54;86.81;101071.42;1793105;78;21010;-70
2020/12/27 09:17:08;;;;;;;10.90;5.40;;;;;;;3.48;85.86;101073.14;1795197;80;21193;-70
2020/12/27 09:19:36;;;;;;;8.87;4.67;;;;;;;3.60;86.04;101070.15;1793524;79;21002;-71
2020/12/27 09:22:05;;;;;;;17.77;8.10;;;;;;;3.74;85.81;101066.56;1770376;81;21075;-71
2020/12/27 09:24:34;;;;;;;24.27;12.53;;;;;;;3.95;85.75;101073.16;1770252;81;21255;-71
2020/12/27 09:27:08;;;;;;;16.50;8.80;;;;;;;3.99;84.44;101073.80;1770443;81;21072;-71
2020/12/27 09:30:03;;;;;;;15.67;7.53;;;;;;;4.01;83.45;101073.22;1889826;76;26588;-71
2020/12/27 09:32:33;;;;;;;16.93;6.93;;;;;;;4.05;83.22;101072.53;1765591;79;20981;-71
2020/12/27 09:35:00;;;;;;;21.50;8.17;;;;;;;4.02;81.71;101068.71;1813457;78;21375;-71
2020/12/27 09:37:33;;;;;;;17.73;7.53;;;;;;;3.86;80.60;101066.20;1782711;78;21007;-71
2020/12/27 09:40:09;;;;;;;10.27;5.03;;;;;;;3.80;80.26;101063.47;1889943;76;26791;-72
2020/12/27 09:42:37;;;;;;;8.30;4.23;;;;;;;3.83;80.58;101075.31;1860830;77;20986;-71
2020/12/27 09:45:24;;;;;;;10.90;4.80;;;;;;;3.96;80.83;101075.34;1860794;77;21852;-70
2020/12/27 09:47:58;;;;;;;20.73;10.23;;;;;;;4.15;80.88;101069.61;1792325;80;20949;-71
2020/12/27 09:50:35;;;;;;;13.13;5.25;;;;;;;4.33;80.03;101068.34;1792485;80;21024;-71
2020/12/27 09:53:15;;;;;;;9.67;4.83;;;;;;;4.32;78.68;101068.44;1845269;76;26682;-71
2020/12/27 09:55:43;;;;;;;12.63;4.62;;;;;;;4.36;78.86;101074.83;1808801;79;21056;-70
2020/12/27 09:58:12;;;;;;;9.73;4.17;;;;;;;4.40;78.50;101072.80;1815298;79;21355;-71
2020/12/27 10:00:40;;;;;;;10.83;4.70;;;;;;;4.43;78.09;101083.80;1806810;78;21434;-72
2020/12/27 10:03:08;;;;;;;7.67;4.27;;;;;;;4.42;77.67;101084.25;1735762;82;21030;-71
2020/12/27 10:05:35;;;;;;;14.47;6.53;;;;;;;4.42;77.13;101081.58;1740961;82;21594;-71
2020/12/27 10:08:04;;;;;;;10.70;4.80;;;;;;;4.40;76.92;101086.19;1740992;82;20992;-71
2020/12/27 10:10:32;;;;;;;13.60;5.33;;;;;;;4.43;77.16;101085.98;1758965;81;21661;-72
2020/12/27 10:13:00;;;;;;;10.50;5.13;;;;;;;4.55;77.18;101077.55;1735613;82;21017;-71
2020/12/27 10:15:28;;;;;;;14.73;5.60;;;;;;;4.62;76.70;101082.02;1741026;82;21488;-71
2020/12/27 10:17:55;;;;;;;18.03;8.50;;;;;;;4.67;76.12;101079.88;1740968;82;21597;-71
2020/12/27 10:20:23;;;;;;;9.23;4.73;;;;;;;4.62;75.17;101075.31;1758856;81;21610;-71
2020/12/27 10:22:51;;;;;;;7.80;3.70;;;;;;;4.58;74.48;101075.16;1735713;82;21132;-71
2020/12/27 10:25:19;;;;;;;12.33;4.90;;;;;;;4.70;74.91;101072.47;1741000;82;21008;-71
2020/12/27 10:27:47;;;;;;;10.67;4.40;;;;;;;4.87;74.75;101065.94;1740874;82;21012;-70
2020/12/27 10:30:15;;;;;;;7.73;4.40;;;;;;;4.92;73.86;101065.59;1741015;82;21020;-71
2020/12/27 10:32:44;;;;;;;12.27;4.50;;;;;;;4.95;73.17;101065.38;1736810;82;21035;-69
2020/12/27 10:35:12;;;;;;;10.20;4.37;;;;;;;4.90;72.19;101064.35;1740989;82;21332;-70
2020/12/27 10:37:40;;;;;;;8.93;4.47;;;;;;;4.92;72.15;101068.27;1758819;81;21056;-70
2020/12/27 10:40:09;;;;;;;12.90;5.60;;;;;;;5.01;72.07;101064.95;1735815;82;21570;-70
2020/12/27 10:42:37;;;;;;;12.70;4.27;;;;;;;5.11;72.00;101053.07;1741078;82;20957;-70
2020/12/27 10:45:05;;;;;;;9.23;4.23;;;;;;;5.20;71.87;101054.23;1759264;81;21020;-70
2020/12/27 10:47:33;;;;;;;10.53;5.40;;;;;;;5.23;71.35;101055.36;1735043;82;22268;-70
2020/12/27 10:50:01;;;;;;;10.20;5.10;;;;;;;5.29;70.91;101058.45;1765351;81;20950;-70
2020/12/27 10:52:29;;;;;;;12.40;4.73;;;;;;;5.35;70.40;101058.94;1764891;81;21159;-72
2020/12/27 10:54:57;;;;;;;14.20;5.87;;;;;;;5.42;70.08;101055.72;1734908;82;20993;-70
2020/12/27 10:57:25;;;;;;;13.90;6.10;;;;;;;5.48;69.70;101057.09;1765072;81;20954;-71
2020/12/27 10:59:53;;;;;;;14.03;5.50;;;;;;;5.56;69.88;101053.36;1734956;82;21205;-70
2020/12/27 11:02:20;;;;;;;14.10;6.33;;;;;;;5.60;69.16;101062.05;1765622;81;21016;-71
2020/12/27 11:04:48;;;;;;;15.03;5.60;;;;;;;5.52;68.53;101063.93;1765272;81;21028;-70
2020/12/27 11:07:18;;;;;;;16.87;6.50;;;;;;;5.44;68.57;101061.83;1760715;81;21040;-71
2020/12/27 11:09:47;;;;;;;14.17;5.73;;;;;;;5.51;68.84;101066.26;1765322;81;20977;-71
2020/12/27 11:12:16;;;;;;;11.97;5.50;;;;;;;5.66;68.94;101079.02;1765339;81;21211;-71
2020/12/27 11:14:44;;;;;;;13.20;6.33;;;;;;;5.78;68.50;101083.96;1765257;81;21554;-71
2020/12/27 11:17:12;;;;;;;17.37;5.97;;;;;;;5.82;67.69;101084.94;1765198;81;21041;-71
2020/12/27 11:19:40;;;;;;;15.73;5.40;;;;;;;5.77;66.99;101076.41;1765402;81;21158;-71
2020/12/27 11:22:08;;;;;;;14.33;5.53;;;;;;;5.70;66.71;101076.00;1769169;80;20952;-70
2020/12/27 11:24:36;;;;;;;12.30;5.77;;;;;;;5.72;66.48;101078.57;1771030;81;21214;-70
2020/12/27 11:27:04;;;;;;;12.23;5.80;;;;;;;5.74;65.79;101082.45;1770965;81;21035;-70
2020/12/27 11:29:32;;;;;;;12.00;4.50;;;;;;;5.81;65.64;101080.56;1770933;81;21058;-71
2020/12/27 11:32:00;;;;;;;14.53;5.27;;;;;;;5.91;65.83;101074.00;1767577;81;20957;-72
2020/12/27 11:34:27;;;;;;;10.10;4.73;;;;;;;6.01;65.64;101076.89;1763743;80;21511;-70
2020/12/27 11:36:55;;;;;;;14.10;5.10;;;;;;;6.10;65.26;101075.34;1763804;81;22373;-69
2020/12/27 11:39:23;;;;;;;12.90;5.57;;;;;;;6.11;64.67;101075.23;1763705;81;21605;-71
2020/12/27 11:41:52;;;;;;;8.43;4.63;;;;;;;6.05;63.96;101076.52;1763622;81;21376;-70